[source: ADDS]
METAR
EDVE 231350Z VRB03KT 9999 SCT034 SCT045 20/12 Q1021

TAF EDVE 231100Z 2312/2321 VRB03KT 9999 FEW030 BKN045 TEMPO 2312/2321 32005KT EDDV 231350Z VRB02KT 9999 FEW030 BKN040 20/12 Q1021 NOSIG

TAF EDDV 231100Z 2312/2412 VRB03KT 9999 FEW030 BKN045 TEMPO 2312/2324 32005KT PROB30 TEMPO 2405/2409 BKN012 TEMPO 2408/2412 36005KT ETHS 231320Z 19001KT 9999 BKN036 BKN150 21/11 Q1020 BLU BLU

TAF ETHS 231322Z 2314/2323 30005KT 9999 NSW BKN035 ETHC 231320Z 12004KT 9999 FEW034 BKN036 20/11 Q1020 BLU BLU

TAF ETHC 231330Z 2314/2323 31005KT 9999 NSW BKN035 EDVK 231350Z 36007KT 9999 OVC024 18/13 Q1020

TAF EDVK 231100Z 2312/2321 02006KT 9999 BKN035
TAF
TAF EDVE 231100Z 2312/2321 VRB03KT 9999 FEW030 BKN045 TEMPO 2312/2321 32005KT

TAF EDDV 231100Z 2312/2412 VRB03KT 9999 FEW030 BKN045 TEMPO 2312/2324 32005KT PROB30 TEMPO 2405/2409 BKN012 TEMPO 2408/2412 36005KT

TAF ETHS 231322Z 2314/2323 30005KT 9999 NSW BKN035

TAF ETHC 231330Z 2314/2323 31005KT 9999 NSW BKN035

TAF EDVK 231100Z 2312/2321 02006KT 9999 BKN035

SR / SS: 02:56 / 19:43 UTC (EDVE 2021-06-23)
Wir gratulieren Karsten, Fabian und Carsten zu ihrem ersten Soloflug! Herzlichen Glückwunsch und always Happy Landings! +++ Wir begrüßen Patrick als neues Mitglied der FFG! Viel Spass und always Happy Landings! +++ Und noch ein frischgebackener Pilot in der FFG: Stefan hat seine PPL-Prüfung bestanden! Gratulation und weiterhin Happy Landings! +++ Andreas hat seine PPL-Prüfung bestanden! Herzlichen Glückwunsch und weiterhin Happy Landings! +++ Marek hat seinen ersten Alleinflug absolviert! Herzlichen Glückwunsch und weiterhin Happy Landings! +++ Wir heißen Simon als neuen Flugschüler willkommen und wünschen eine erfolgreiche Ausbildung! +++ David hat seine Prüfung für die Instrumentenflugberechtigung bestanden! Gratulation und weiterhin Happy Landings! +++ Julian hat seine praktische PPL(A)-Prüfung bestanden! Herzlichen Glückwunsch und weiterhin Happy Landings! +++ Willkommen bei der FFG, Daniel! Viel Erfolg bei der Ausbildung!

wenig -> mittel -> viel

Professionelle Piloten arbeiten mit Checkliste
Ausdrucken und abarbeiten!

Weiterlesen ...

 Zugang zur DFS. Auf dem FFG-Account sind alle erforderlichen Daten unserer Maschinen hinterlegt.

DFS Login

Hier gibt es die AIP mit allen erforderlichen Karten die im Abo der FFG liegen zum Download für unsere Mitglieder.

Charts Zugang
Letztes NOTAM EDVE
von 13.07.2021 0500Z bis 14.07.2021 1400Z
DAILY 0500-1400
OCA(H) VALUES RAISED AS FOLLOWS: LNAV RWY08: ACFT CAT A-D 740 (460) FT LNAV/VNAV RWY08: ACFT CAT A 532 (259), B 54 [more]


Letztes NOTAM EDCB
von 28.05.2021 0842Z bis 30.06.2021 2159Z
AD HOURS OF OPS: DAILY 0700-1600. OTHER TIMES PPR.

Letztes NOTAM EDBC
von 04.06.2021 0955Z bis 04.09.2021 2359Z
DAILY SR-SS. DRONE 5NM RADIUS CENTERED ON PSN 515122N 0112505E AT MAGDEBURG/COCHSTEDT.
GND- 1000FT AGL

Letztes NOTAM EDVM
von 04.06.2021 2105Z bis 01.07.2021 1800Z
CRANE 700M SW ARP, ELEV 415FT/120FT AGL. NOT MARKED.

Letztes NOTAM EDDV
von 21.06.2021 0921Z bis 21.09.2021 2359Z
DUE TO INSUFFICIENT NAV AID COVERAGE OF NIE VOR THE FLW CHANGES TO APCH PROC OCCUR: RWY 09L LOC AND NDB: CROSSING R132 UNUSABLE. REF A [more]

Letztes NOTAM EDVK
von 16.06.2021 2359Z bis 14.07.2021 2359Z
AD EDVK KASSEL CALDEN TORNADO FLIP ALL PROCEDURES SUSPENDED DUE TO NEW MINIMAS FOR CURRENT PROCEDURES SEE CIV AIP GERMANY. NOTAM WILL [more]